sensor_id;sensor_type;location;lat;lon;timestamp;pressure;altitude;pressure_sealevel;temperature;humidity
78223;BME280;67497;53.058;21.618;2023-12-28T00:01:11;100790.47;;;-1.09;87.33
78223;BME280;67497;53.058;21.618;2023-12-28T00:03:11;100757.97;;;-1.24;86.73
78223;BME280;67497;53.058;21.618;2023-12-28T00:05:12;100768.22;;;-1.13;86.76
78223;BME280;67497;53.058;21.618;2023-12-28T00:07:12;100787.97;;;-0.94;87.22
78223;BME280;67497;53.058;21.618;2023-12-28T00:09:13;100785.78;;;-0.86;86.85
78223;BME280;67497;53.058;21.618;2023-12-28T00:11:14;100768.88;;;-0.88;86.79
78223;BME280;67497;53.058;21.618;2023-12-28T00:13:14;100728.50;;;-1.06;87.65
78223;BME280;67497;53.058;21.618;2023-12-28T00:15:14;100757.88;;;-0.83;87.01
78223;BME280;67497;53.058;21.618;2023-12-28T00:17:15;100753.78;;;-0.92;86.94
78223;BME280;67497;53.058;21.618;2023-12-28T00:19:15;100768.59;;;-0.82;87.20
78223;BME280;67497;53.058;21.618;2023-12-28T00:21:15;100734.19;;;-0.94;87.27
78223;BME280;67497;53.058;21.618;2023-12-28T00:23:16;100773.81;;;-0.79;87.31
78223;BME280;67497;53.058;21.618;2023-12-28T00:25:16;100786.81;;;-0.70;87.29
78223;BME280;67497;53.058;21.618;2023-12-28T00:27:17;100762.97;;;-0.77;86.87
78223;BME280;67497;53.058;21.618;2023-12-28T00:29:17;100779.41;;;-0.65;86.83
78223;BME280;67497;53.058;21.618;2023-12-28T00:31:17;100787.16;;;-0.57;86.79
78223;BME280;67497;53.058;21.618;2023-12-28T00:33:18;100765.41;;;-0.71;86.70
78223;BME280;67497;53.058;21.618;2023-12-28T00:35:18;100760.81;;;-0.69;86.55
78223;BME280;67497;53.058;21.618;2023-12-28T00:37:18;100762.44;;;-0.65;86.46
78223;BME280;67497;53.058;21.618;2023-12-28T00:39:19;100745.53;;;-0.69;87.08
78223;BME280;67497;53.058;21.618;2023-12-28T00:41:19;100776.38;;;-0.57;87.35
78223;BME280;67497;53.058;21.618;2023-12-28T00:43:19;100767.22;;;-0.53;86.88
78223;BME280;67497;53.058;21.618;2023-12-28T00:45:20;100762.84;;;-0.55;86.94
78223;BME280;67497;53.058;21.618;2023-12-28T00:47:20;100735.56;;;-0.67;87.26
78223;BME280;67497;53.058;21.618;2023-12-28T00:49:21;100755.00;;;-0.60;86.88
78223;BME280;67497;53.058;21.618;2023-12-28T00:51:21;100766.03;;;-0.47;86.43
78223;BME280;67497;53.058;21.618;2023-12-28T00:53:21;100783.63;;;-0.40;86.81
78223;BME280;67497;53.058;21.618;2023-12-28T00:55:22;100757.03;;;-0.46;85.87
78223;BME280;67497;53.058;21.618;2023-12-28T00:57:22;100763.88;;;-0.39;86.83
78223;BME280;67497;53.058;21.618;2023-12-28T00:59:22;100766.47;;;-0.38;86.62
78223;BME280;67497;53.058;21.618;2023-12-28T01:01:23;100769.88;;;-0.34;86.44
78223;BME280;67497;53.058;21.618;2023-12-28T01:03:23;100760.88;;;-0.33;86.48
78223;BME280;67497;53.058;21.618;2023-12-28T01:05:24;100735.44;;;-0.45;87.00
78223;BME280;67497;53.058;21.618;2023-12-28T01:07:26;100736.81;;;-0.36;87.01
78223;BME280;67497;53.058;21.618;2023-12-28T01:09:26;100730.69;;;-0.40;86.71
78223;BME280;67497;53.058;21.618;2023-12-28T01:11:27;100726.19;;;-0.39;86.87
78223;BME280;67497;53.058;21.618;2023-12-28T01:13:28;100716.69;;;-0.46;87.26
78223;BME280;67497;53.058;21.618;2023-12-28T01:15:28;100707.97;;;-0.51;86.66
78223;BME280;67497;53.058;21.618;2023-12-28T01:17:29;100724.59;;;-0.43;87.49
78223;BME280;67497;53.058;21.618;2023-12-28T01:19:29;100715.72;;;-0.45;86.96
78223;BME280;67497;53.058;21.618;2023-12-28T01:21:29;100712.81;;;-0.41;87.27
78223;BME280;67497;53.058;21.618;2023-12-28T01:23:30;100717.03;;;-0.35;86.91
78223;BME280;67497;53.058;21.618;2023-12-28T01:25:30;100679.94;;;-0.47;86.86
78223;BME280;67497;53.058;21.618;2023-12-28T01:27:30;100685.19;;;-0.44;87.70
78223;BME280;67497;53.058;21.618;2023-12-28T01:29:31;100679.94;;;-0.47;87.51
78223;BME280;67497;53.058;21.618;2023-12-28T01:31:32;100674.72;;;-0.50;87.56
78223;BME280;67497;53.058;21.618;2023-12-28T01:33:33;100686.75;;;-0.40;88.27
78223;BME280;67497;53.058;21.618;2023-12-28T01:35:35;100667.41;;;-0.48;87.46
78223;BME280;67497;53.058;21.618;2023-12-28T01:37:35;100663.50;;;-0.41;87.53
78223;BME280;67497;53.058;21.618;2023-12-28T01:39:36;100664.38;;;-0.41;87.59
78223;BME280;67497;53.058;21.618;2023-12-28T01:41:36;100655.50;;;-0.43;87.33
78223;BME280;67497;53.058;21.618;2023-12-28T01:43:37;100650.84;;;-0.39;87.18
78223;BME280;67497;53.058;21.618;2023-12-28T01:45:37;100654.31;;;-0.37;87.48
78223;BME280;67497;53.058;21.618;2023-12-28T01:47:38;100649.91;;;-0.38;87.24
78223;BME280;67497;53.058;21.618;2023-12-28T01:49:39;100654.16;;;-0.34;87.60
78223;BME280;67497;53.058;21.618;2023-12-28T01:51:39;100648.13;;;-0.39;87.58
78223;BME280;67497;53.058;21.618;2023-12-28T01:53:43;100643.00;;;-0.44;88.10
78223;BME280;67497;53.058;21.618;2023-12-28T01:55:45;100661.31;;;-0.33;88.23
78223;BME280;67497;53.058;21.618;2023-12-28T01:57:45;100650.28;;;-0.29;87.60
78223;BME280;67497;53.058;21.618;2023-12-28T01:59:46;100646.66;;;-0.28;87.54
78223;BME280;67497;53.058;21.618;2023-12-28T02:01:47;100642.38;;;-0.32;88.00
78223;BME280;67497;53.058;21.618;2023-12-28T02:03:48;100635.50;;;-0.20;87.17
78223;BME280;67497;53.058;21.618;2023-12-28T02:05:48;100629.34;;;-0.22;87.34
78223;BME280;67497;53.058;21.618;2023-12-28T02:07:49;100608.56;;;-0.37;87.41
78223;BME280;67497;53.058;21.618;2023-12-28T02:09:49;100639.13;;;-0.21;87.28
78223;BME280;67497;53.058;21.618;2023-12-28T02:11:50;100613.59;;;-0.30;87.18
78223;BME280;67497;53.058;21.618;2023-12-28T02:13:50;100631.44;;;-0.29;87.55
78223;BME280;67497;53.058;21.618;2023-12-28T02:15:54;100613.94;;;-0.37;87.29
78223;BME280;67497;53.058;21.618;2023-12-28T02:20:05;100610.06;;;-0.32;87.17
78223;BME280;67497;53.058;21.618;2023-12-28T02:22:07;100612.56;;;-0.27;87.41
78223;BME280;67497;53.058;21.618;2023-12-28T02:24:09;100595.97;;;-0.37;87.18
78223;BME280;67497;53.058;21.618;2023-12-28T02:26:09;100599.25;;;-0.30;87.48
78223;BME280;67497;53.058;21.618;2023-12-28T02:28:09;100593.03;;;-0.32;87.31
78223;BME280;67497;53.058;21.618;2023-12-28T02:30:10;100579.75;;;-0.52;87.29
78223;BME280;67497;53.058;21.618;2023-12-28T02:32:12;100607.63;;;-0.36;87.25
78223;BME280;67497;53.058;21.618;2023-12-28T02:34:16;100605.88;;;-0.37;87.10
78223;BME280;67497;53.058;21.618;2023-12-28T02:36:23;100616.44;;;-0.33;87.33
78223;BME280;67497;53.058;21.618;2023-12-28T02:38:24;100607.78;;;-0.39;86.79
78223;BME280;67497;53.058;21.618;2023-12-28T02:40:26;100581.50;;;-0.51;86.54
78223;BME280;67497;53.058;21.618;2023-12-28T02:42:27;100578.97;;;-0.54;86.96
78223;BME280;67497;53.058;21.618;2023-12-28T02:44:28;100601.13;;;-0.49;86.76
78223;BME280;67497;53.058;21.618;2023-12-28T02:46:28;100587.47;;;-0.64;86.79
78223;BME280;67497;53.058;21.618;2023-12-28T02:48:29;100591.25;;;-0.68;87.10
78223;BME280;67497;53.058;21.618;2023-12-28T02:50:30;100580.84;;;-0.74;86.47
78223;BME280;67497;53.058;21.618;2023-12-28T02:52:30;100596.81;;;-0.71;86.63
78223;BME280;67497;53.058;21.618;2023-12-28T02:54:31;100574.31;;;-0.87;87.40
78223;BME280;67497;53.058;21.618;2023-12-28T02:56:31;100582.88;;;-0.79;86.55
78223;BME280;67497;53.058;21.618;2023-12-28T02:58:33;100567.47;;;-0.94;86.90
78223;BME280;67497;53.058;21.618;2023-12-28T03:00:33;100559.91;;;-0.86;87.02
78223;BME280;67497;53.058;21.618;2023-12-28T03:02:37;100561.03;;;-0.90;86.65
78223;BME280;67497;53.058;21.618;2023-12-28T03:04:38;100560.38;;;-0.95;86.93
78223;BME280;67497;53.058;21.618;2023-12-28T03:06:38;100578.72;;;-0.86;87.17
78223;BME280;67497;53.058;21.618;2023-12-28T03:08:40;100554.19;;;-0.97;87.11
78223;BME280;67497;53.058;21.618;2023-12-28T03:10:40;100539.31;;;-1.04;88.15
78223;BME280;67497;53.058;21.618;2023-12-28T03:12:41;100526.94;;;-1.08;88.47
78223;BME280;67497;53.058;21.618;2023-12-28T03:14:41;100532.19;;;-1.05;88.46
78223;BME280;67497;53.058;21.618;2023-12-28T03:16:42;100554.13;;;-0.95;88.15
78223;BME280;67497;53.058;21.618;2023-12-28T03:18:42;100505.78;;;-1.14;88.48
78223;BME280;67497;53.058;21.618;2023-12-28T03:20:42;100519.84;;;-1.09;88.70
78223;BME280;67497;53.058;21.618;2023-12-28T03:22:43;100527.09;;;-0.92;88.79
78223;BME280;67497;53.058;21.618;2023-12-28T03:24:43;100523.69;;;-0.96;88.63
78223;BME280;67497;53.058;21.618;2023-12-28T03:26:44;100528.28;;;-0.98;88.71
78223;BME280;67497;53.058;21.618;2023-12-28T03:28:44;100529.53;;;-0.88;88.70
78223;BME280;67497;53.058;21.618;2023-12-28T03:30:44;100504.13;;;-0.99;89.07
78223;BME280;67497;53.058;21.618;2023-12-28T03:32:45;100511.25;;;-0.98;89.01
78223;BME280;67497;53.058;21.618;2023-12-28T03:34:45;100503.34;;;-1.01;89.13
78223;BME280;67497;53.058;21.618;2023-12-28T03:36:45;100521.13;;;-0.99;88.96
78223;BME280;67497;53.058;21.618;2023-12-28T03:38:46;100523.59;;;-0.94;89.32
78223;BME280;67497;53.058;21.618;2023-12-28T03:40:46;100507.59;;;-0.97;89.21
78223;BME280;67497;53.058;21.618;2023-12-28T03:42:48;100512.84;;;-0.94;89.25
78223;BME280;67497;53.058;21.618;2023-12-28T03:44:48;100504.91;;;-0.97;89.45
78223;BME280;67497;53.058;21.618;2023-12-28T03:46:49;100516.25;;;-0.91;89.38
78223;BME280;67497;53.058;21.618;2023-12-28T03:48:50;100520.69;;;-0.90;89.14
78223;BME280;67497;53.058;21.618;2023-12-28T03:50:50;100513.56;;;-0.91;89.42
78223;BME280;67497;53.058;21.618;2023-12-28T03:52:51;100503.59;;;-0.89;88.91
78223;BME280;67497;53.058;21.618;2023-12-28T03:54:51;100476.38;;;-1.00;88.94
78223;BME280;67497;53.058;21.618;2023-12-28T03:56:51;100491.25;;;-0.93;88.82
78223;BME280;67497;53.058;21.618;2023-12-28T03:58:52;100500.91;;;-0.89;88.78
78223;BME280;67497;53.058;21.618;2023-12-28T04:00:53;100511.50;;;-0.86;89.43
78223;BME280;67497;53.058;21.618;2023-12-28T04:02:53;100491.91;;;-0.88;89.24
78223;BME280;67497;53.058;21.618;2023-12-28T04:04:53;100479.72;;;-0.95;89.24
78223;BME280;67497;53.058;21.618;2023-12-28T04:06:55;100480.22;;;-0.87;89.04
78223;BME280;67497;53.058;21.618;2023-12-28T04:08:56;100477.53;;;-0.87;89.24
78223;BME280;67497;53.058;21.618;2023-12-28T04:10:56;100482.22;;;-0.92;88.75
78223;BME280;67497;53.058;21.618;2023-12-28T04:12:57;100471.31;;;-0.89;89.12
78223;BME280;67497;53.058;21.618;2023-12-28T04:14:59;100461.75;;;-0.94;88.97
78223;BME280;67497;53.058;21.618;2023-12-28T04:16:59;100471.91;;;-0.82;89.06
78223;BME280;67497;53.058;21.618;2023-12-28T04:18:59;100446.97;;;-0.86;89.44
78223;BME280;67497;53.058;21.618;2023-12-28T04:21:00;100435.34;;;-0.86;89.00
78223;BME280;67497;53.058;21.618;2023-12-28T04:23:00;100432.75;;;-0.88;89.09
78223;BME280;67497;53.058;21.618;2023-12-28T04:25:00;100436.69;;;-0.78;89.11
78223;BME280;67497;53.058;21.618;2023-12-28T04:27:01;100421.06;;;-0.87;89.14
78223;BME280;67497;53.058;21.618;2023-12-28T04:29:01;100439.53;;;-0.81;88.96
78223;BME280;67497;53.058;21.618;2023-12-28T04:31:05;100446.75;;;-0.81;88.93
78223;BME280;67497;53.058;21.618;2023-12-28T04:33:06;100422.28;;;-0.94;89.02
78223;BME280;67497;53.058;21.618;2023-12-28T04:35:06;100408.06;;;-0.96;89.39
78223;BME280;67497;53.058;21.618;2023-12-28T04:37:07;100412.00;;;-0.86;89.54
78223;BME280;67497;53.058;21.618;2023-12-28T04:39:07;100407.41;;;-0.84;89.43
78223;BME280;67497;53.058;21.618;2023-12-28T04:41:09;100409.78;;;-0.78;89.12
78223;BME280;67497;53.058;21.618;2023-12-28T04:43:10;100379.13;;;-0.91;89.51
78223;BME280;67497;53.058;21.618;2023-12-28T04:45:10;100386.88;;;-0.85;89.33
78223;BME280;67497;53.058;21.618;2023-12-28T04:47:10;100394.44;;;-0.76;89.12
78223;BME280;67497;53.058;21.618;2023-12-28T04:49:11;100404.09;;;-0.72;89.30
78223;BME280;67497;53.058;21.618;2023-12-28T04:51:12;100387.34;;;-0.77;88.80
78223;BME280;67497;53.058;21.618;2023-12-28T04:53:12;100400.38;;;-0.69;89.29
78223;BME280;67497;53.058;21.618;2023-12-28T04:55:13;100408.19;;;-0.65;88.72
78223;BME280;67497;53.058;21.618;2023-12-28T04:57:14;100384.09;;;-0.66;88.79
78223;BME280;67497;53.058;21.618;2023-12-28T04:59:14;100370.69;;;-0.68;88.99
78223;BME280;67497;53.058;21.618;2023-12-28T05:01:14;100353.72;;;-0.68;88.83
78223;BME280;67497;53.058;21.618;2023-12-28T05:03:15;100353.38;;;-0.62;89.06
78223;BME280;67497;53.058;21.618;2023-12-28T05:05:15;100353.91;;;-0.55;88.68
78223;BME280;67497;53.058;21.618;2023-12-28T05:07:16;100331.84;;;-0.62;88.67
78223;BME280;67497;53.058;21.618;2023-12-28T05:09:16;100325.78;;;-0.66;88.59
78223;BME280;67497;53.058;21.618;2023-12-28T05:11:16;100337.94;;;-0.58;88.66
78223;BME280;67497;53.058;21.618;2023-12-28T05:13:17;100329.09;;;-0.61;88.51
78223;BME280;67497;53.058;21.618;2023-12-28T05:15:18;100322.78;;;-0.59;88.78
78223;BME280;67497;53.058;21.618;2023-12-28T05:17:19;100307.72;;;-0.64;88.57
78223;BME280;67497;53.058;21.618;2023-12-28T05:19:20;100312.69;;;-0.56;88.36
78223;BME280;67497;53.058;21.618;2023-12-28T05:21:20;100307.72;;;-0.64;88.38
78223;BME280;67497;53.058;21.618;2023-12-28T05:23:21;100315.22;;;-0.53;88.68
78223;BME280;67497;53.058;21.618;2023-12-28T05:25:21;100307.09;;;-0.51;88.29
78223;BME280;67497;53.058;21.618;2023-12-28T05:27:21;100301.50;;;-0.48;87.81
78223;BME280;67497;53.058;21.618;2023-12-28T05:29:22;100301.69;;;-0.51;87.95
78223;BME280;67497;53.058;21.618;2023-12-28T05:31:22;100299.78;;;-0.49;88.06
78223;BME280;67497;53.058;21.618;2023-12-28T05:33:22;100290.13;;;-0.53;87.59
78223;BME280;67497;53.058;21.618;2023-12-28T05:35:23;100288.84;;;-0.46;88.13
78223;BME280;67497;53.058;21.618;2023-12-28T05:37:23;100281.56;;;-0.44;87.61
78223;BME280;67497;53.058;21.618;2023-12-28T05:39:24;100254.47;;;-0.57;87.77
78223;BME280;67497;53.058;21.618;2023-12-28T05:41:24;100267.66;;;-0.52;87.48
78223;BME280;67497;53.058;21.618;2023-12-28T05:43:24;100263.06;;;-0.50;87.33
78223;BME280;67497;53.058;21.618;2023-12-28T05:45:25;100264.72;;;-0.48;87.03
78223;BME280;67497;53.058;21.618;2023-12-28T05:47:25;100274.44;;;-0.45;87.27
78223;BME280;67497;53.058;21.618;2023-12-28T05:49:25;100258.38;;;-0.47;87.25
78223;BME280;67497;53.058;21.618;2023-12-28T05:51:26;100236.75;;;-0.45;86.86
78223;BME280;67497;53.058;21.618;2023-12-28T05:53:26;100230.59;;;-0.47;86.83
78223;BME280;67497;53.058;21.618;2023-12-28T05:55:27;100247.88;;;-0.36;86.57
78223;BME280;67497;53.058;21.618;2023-12-28T05:57:28;100219.75;;;-0.46;86.21
78223;BME280;67497;53.058;21.618;2023-12-28T05:59:30;100220.44;;;-0.42;86.26
78223;BME280;67497;53.058;21.618;2023-12-28T06:01:31;100244.16;;;-0.33;86.36
78223;BME280;67497;53.058;21.618;2023-12-28T06:03:31;100229.13;;;-0.37;86.11
78223;BME280;67497;53.058;21.618;2023-12-28T06:05:31;100241.28;;;-0.30;86.01
78223;BME280;67497;53.058;21.618;2023-12-28T06:07:32;100218.19;;;-0.34;85.72
78223;BME280;67497;53.058;21.618;2023-12-28T06:09:32;100218.72;;;-0.28;85.82
78223;BME280;67497;53.058;21.618;2023-12-28T06:11:33;100221.31;;;-0.26;85.41
78223;BME280;67497;53.058;21.618;2023-12-28T06:13:33;100215.31;;;-0.16;85.26
78223;BME280;67497;53.058;21.618;2023-12-28T06:15:33;100220.19;;;-0.22;84.56
78223;BME280;67497;53.058;21.618;2023-12-28T06:17:34;100231.00;;;-0.08;84.37
78223;BME280;67497;53.058;21.618;2023-12-28T06:19:34;100198.84;;;-0.25;84.29
78223;BME280;67497;53.058;21.618;2023-12-28T06:21:35;100203.66;;;-0.16;84.48
78223;BME280;67497;53.058;21.618;2023-12-28T06:23:35;100189.00;;;-0.26;84.24
78223;BME280;67497;53.058;21.618;2023-12-28T06:25:35;100191.25;;;-0.19;83.90
78223;BME280;67497;53.058;21.618;2023-12-28T06:27:36;100187.34;;;-0.13;84.11
78223;BME280;67497;53.058;21.618;2023-12-28T06:29:36;100176.69;;;-0.15;84.06
78223;BME280;67497;53.058;21.618;2023-12-28T06:31:37;100157.91;;;-0.16;83.61
78223;BME280;67497;53.058;21.618;2023-12-28T06:33:37;100167.44;;;-0.11;83.93
78223;BME280;67497;53.058;21.618;2023-12-28T06:35:39;100145.59;;;-0.20;83.41
78223;BME280;67497;53.058;21.618;2023-12-28T06:37:39;100149.22;;;-0.21;83.88
78223;BME280;67497;53.058;21.618;2023-12-28T06:39:40;100168.84;;;-0.04;83.76
78223;BME280;67497;53.058;21.618;2023-12-28T06:41:40;100171.59;;;-0.05;83.46
78223;BME280;67497;53.058;21.618;2023-12-28T06:43:40;100155.91;;;-0.13;83.44
78223;BME280;67497;53.058;21.618;2023-12-28T06:45:41;100154.78;;;-0.09;83.24
78223;BME280;67497;53.058;21.618;2023-12-28T06:47:41;100154.69;;;-0.07;83.58
78223;BME280;67497;53.058;21.618;2023-12-28T06:49:42;100169.53;;;0.00;82.98
78223;BME280;67497;53.058;21.618;2023-12-28T06:51:42;100150.25;;;-0.08;82.99
78223;BME280;67497;53.058;21.618;2023-12-28T06:53:46;100162.41;;;-0.01;82.90
78223;BME280;67497;53.058;21.618;2023-12-28T06:55:46;100147.88;;;0.02;82.96
78223;BME280;67497;53.058;21.618;2023-12-28T06:57:46;100149.72;;;0.01;83.19
78223;BME280;67497;53.058;21.618;2023-12-28T06:59:47;100138.34;;;-0.04;82.80
78223;BME280;67497;53.058;21.618;2023-12-28T07:01:47;100145.66;;;-0.06;83.08
78223;BME280;67497;53.058;21.618;2023-12-28T07:03:49;100148.72;;;-0.12;82.86
78223;BME280;67497;53.058;21.618;2023-12-28T07:05:49;100168.16;;;-0.07;83.08
78223;BME280;67497;53.058;21.618;2023-12-28T07:07:50;100139.00;;;-0.15;82.79
78223;BME280;67497;53.058;21.618;2023-12-28T07:09:50;100153.56;;;-0.03;82.46
78223;BME280;67497;53.058;21.618;2023-12-28T07:11:51;100171.31;;;0.15;82.05
78223;BME280;67497;53.058;21.618;2023-12-28T07:13:51;100176.75;;;0.14;82.23
78223;BME280;67497;53.058;21.618;2023-12-28T07:15:51;100157.91;;;0.14;82.18
78223;BME280;67497;53.058;21.618;2023-12-28T07:17:52;100147.59;;;0.06;82.17
78223;BME280;67497;53.058;21.618;2023-12-28T07:19:52;100128.56;;;0.09;81.99
78223;BME280;67497;53.058;21.618;2023-12-28T07:21:52;100119.16;;;0.02;81.66
78223;BME280;67497;53.058;21.618;2023-12-28T07:23:53;100130.97;;;-0.01;82.15
78223;BME280;67497;53.058;21.618;2023-12-28T07:25:53;100142.56;;;0.16;82.35
78223;BME280;67497;53.058;21.618;2023-12-28T07:27:53;100119.72;;;0.07;82.67
78223;BME280;67497;53.058;21.618;2023-12-28T07:29:54;100100.28;;;0.02;82.03
78223;BME280;67497;53.058;21.618;2023-12-28T07:31:54;100109.53;;;0.12;82.64
78223;BME280;67497;53.058;21.618;2023-12-28T07:33:55;100107.63;;;0.14;82.59
78223;BME280;67497;53.058;21.618;2023-12-28T07:35:55;100095.78;;;0.17;82.46
78223;BME280;67497;53.058;21.618;2023-12-28T07:37:55;100100.63;;;0.26;82.23
78223;BME280;67497;53.058;21.618;2023-12-28T07:39:56;100122.69;;;0.32;82.01
78223;BME280;67497;53.058;21.618;2023-12-28T07:41:57;100108.03;;;0.36;81.63
78223;BME280;67497;53.058;21.618;2023-12-28T07:43:58;100128.44;;;0.54;81.54
78223;BME280;67497;53.058;21.618;2023-12-28T07:45:58;100118.16;;;0.61;80.93
78223;BME280;67497;53.058;21.618;2023-12-28T07:47:59;100099.38;;;0.59;80.91
78223;BME280;67497;53.058;21.618;2023-12-28T07:49:59;100097.28;;;0.65;81.03
78223;BME280;67497;53.058;21.618;2023-12-28T07:52:00;100094.47;;;0.66;80.72
78223;BME280;67497;53.058;21.618;2023-12-28T07:54:01;100101.69;;;0.66;80.93
78223;BME280;67497;53.058;21.618;2023-12-28T07:56:01;100095.34;;;0.67;80.64
78223;BME280;67497;53.058;21.618;2023-12-28T07:58:02;100088.41;;;0.63;81.54
78223;BME280;67497;53.058;21.618;2023-12-28T08:00:02;100111.34;;;0.70;81.21
78223;BME280;67497;53.058;21.618;2023-12-28T08:02:04;100096.81;;;0.72;80.55
78223;BME280;67497;53.058;21.618;2023-12-28T08:04:04;100094.19;;;0.71;80.92
78223;BME280;67497;53.058;21.618;2023-12-28T08:06:04;100094.19;;;0.71;80.91
78223;BME280;67497;53.058;21.618;2023-12-28T08:08:05;100076.28;;;0.55;81.05
78223;BME280;67497;53.058;21.618;2023-12-28T08:10:06;100088.72;;;0.72;81.05
78223;BME280;67497;53.058;21.618;2023-12-28T08:12:07;100076.00;;;0.74;80.95
78223;BME280;67497;53.058;21.618;2023-12-28T08:14:07;100067.44;;;0.68;80.79
78223;BME280;67497;53.058;21.618;2023-12-28T08:16:07;100073.59;;;0.70;81.10
78223;BME280;67497;53.058;21.618;2023-12-28T08:18:08;100076.19;;;0.71;81.66
78223;BME280;67497;53.058;21.618;2023-12-28T08:20:09;100050.69;;;0.63;81.26
78223;BME280;67497;53.058;21.618;2023-12-28T08:22:09;100046.66;;;0.70;80.98
78223;BME280;67497;53.058;21.618;2023-12-28T08:24:10;100058.00;;;0.75;80.80
78223;BME280;67497;53.058;21.618;2023-12-28T08:26:10;100019.81;;;0.54;81.79
78223;BME280;67497;53.058;21.618;2023-12-28T08:28:11;100042.97;;;0.71;81.19
78223;BME280;67497;53.058;21.618;2023-12-28T08:30:12;100029.91;;;0.65;81.57
78223;BME280;67497;53.058;21.618;2023-12-28T08:32:12;100008.91;;;0.70;81.06
78223;BME280;67497;53.058;21.618;2023-12-28T08:34:12;100012.84;;;0.78;80.91
78223;BME280;67497;53.058;21.618;2023-12-28T08:36:13;100020.63;;;0.83;80.71
78223;BME280;67497;53.058;21.618;2023-12-28T08:38:13;100001.59;;;0.72;80.67
78223;BME280;67497;53.058;21.618;2023-12-28T08:40:14;100031.03;;;0.89;80.13
78223;BME280;67497;53.058;21.618;2023-12-28T08:42:14;100052.16;;;0.95;80.24
78223;BME280;67497;53.058;21.618;2023-12-28T08:44:15;100057.69;;;0.93;80.67
78223;BME280;67497;53.058;21.618;2023-12-28T08:46:15;100083.25;;;1.00;79.75
78223;BME280;67497;53.058;21.618;2023-12-28T08:48:16;100068.53;;;1.06;78.96
78223;BME280;67497;53.058;21.618;2023-12-28T08:50:17;100063.69;;;1.11;79.32
78223;BME280;67497;53.058;21.618;2023-12-28T08:52:17;100066.31;;;1.12;79.61
78223;BME280;67497;53.058;21.618;2023-12-28T08:54:18;100070.25;;;1.21;79.80
78223;BME280;67497;53.058;21.618;2023-12-28T08:56:20;100063.09;;;1.20;79.89
78223;BME280;67497;53.058;21.618;2023-12-28T08:58:20;100052.91;;;1.11;79.61
78223;BME280;67497;53.058;21.618;2023-12-28T09:00:21;100067.91;;;1.29;79.18
78223;BME280;67497;53.058;21.618;2023-12-28T09:02:21;100061.88;;;1.38;79.17
78223;BME280;67497;53.058;21.618;2023-12-28T09:04:22;100046.19;;;1.31;78.78
78223;BME280;67497;53.058;21.618;2023-12-28T09:06:22;100050.25;;;1.38;79.12
78223;BME280;67497;53.058;21.618;2023-12-28T09:08:23;100057.06;;;1.43;79.42
78223;BME280;67497;53.058;21.618;2023-12-28T09:10:23;100040.41;;;1.37;79.08
78223;BME280;67497;53.058;21.618;2023-12-28T09:12:24;100038.56;;;1.37;79.00
78223;BME280;67497;53.058;21.618;2023-12-28T09:14:24;100036.94;;;1.35;79.25
78223;BME280;67497;53.058;21.618;2023-12-28T09:16:24;100049.66;;;1.59;79.17
78223;BME280;67497;53.058;21.618;2023-12-28T09:18:25;100022.31;;;1.51;78.70
78223;BME280;67497;53.058;21.618;2023-12-28T09:20:25;100019.63;;;1.51;78.41
78223;BME280;67497;53.058;21.618;2023-12-28T09:22:25;100007.81;;;1.40;78.75
78223;BME280;67497;53.058;21.618;2023-12-28T09:24:26;100018.22;;;1.46;79.13
78223;BME280;67497;53.058;21.618;2023-12-28T09:26:26;100033.13;;;1.51;78.81
78223;BME280;67497;53.058;21.618;2023-12-28T09:28:27;100044.47;;;1.56;79.19
78223;BME280;67497;53.058;21.618;2023-12-28T09:30:27;100040.16;;;1.66;79.12
78223;BME280;67497;53.058;21.618;2023-12-28T09:32:27;100020.06;;;1.58;78.77
78223;BME280;67497;53.058;21.618;2023-12-28T09:34:28;100017.50;;;1.69;78.90
78223;BME280;67497;53.058;21.618;2023-12-28T09:36:28;100028.97;;;1.85;78.21
78223;BME280;67497;53.058;21.618;2023-12-28T09:38:29;99999.13;;;1.74;78.00
78223;BME280;67497;53.058;21.618;2023-12-28T09:40:29;100001.97;;;1.72;78.16
78223;BME280;67497;53.058;21.618;2023-12-28T09:42:43;100023.03;;;1.93;78.08
78223;BME280;67497;53.058;21.618;2023-12-28T09:44:45;100017.97;;;1.88;78.26
78223;BME280;67497;53.058;21.618;2023-12-28T09:46:45;100007.38;;;1.85;78.63
78223;BME280;67497;53.058;21.618;2023-12-28T09:48:46;100004.53;;;1.87;78.99
78223;BME280;67497;53.058;21.618;2023-12-28T09:52:51;100008.34;;;1.97;79.08
78223;BME280;67497;53.058;21.618;2023-12-28T09:54:51;100005.66;;;1.97;78.99
78223;BME280;67497;53.058;21.618;2023-12-28T09:56:52;99994.66;;;2.00;78.67
78223;BME280;67497;53.058;21.618;2023-12-28T09:58:57;99983.63;;;2.03;78.63
78223;BME280;67497;53.058;21.618;2023-12-28T10:00:59;100010.31;;;2.20;78.89
78223;BME280;67497;53.058;21.618;2023-12-28T10:03:00;99974.31;;;2.07;79.35
78223;BME280;67497;53.058;21.618;2023-12-28T10:05:00;99984.47;;;2.16;79.02
78223;BME280;67497;53.058;21.618;2023-12-28T10:07:00;99982.31;;;2.08;79.28
78223;BME280;67497;53.058;21.618;2023-12-28T10:09:01;99972.06;;;2.13;78.73
78223;BME280;67497;53.058;21.618;2023-12-28T10:11:02;99977.09;;;2.30;79.02
78223;BME280;67497;53.058;21.618;2023-12-28T10:13:03;99989.22;;;2.37;79.32
78223;BME280;67497;53.058;21.618;2023-12-28T10:15:05;99978.88;;;2.19;79.32
78223;BME280;67497;53.058;21.618;2023-12-28T10:17:05;99963.63;;;2.18;79.64
78223;BME280;67497;53.058;21.618;2023-12-28T10:19:06;99993.75;;;2.37;80.41
78223;BME280;67497;53.058;21.618;2023-12-28T10:21:06;99986.41;;;2.39;79.41
78223;BME280;67497;53.058;21.618;2023-12-28T10:23:07;99994.50;;;2.39;79.66
78223;BME280;67497;53.058;21.618;2023-12-28T10:25:09;99993.75;;;2.37;80.11
78223;BME280;67497;53.058;21.618;2023-12-28T10:27:09;99943.63;;;2.20;79.90
78223;BME280;67497;53.058;21.618;2023-12-28T10:29:10;99957.88;;;2.35;80.52